createdAt,value
2018-12-31T00:02:23.744Z,45.98
2018-12-31T00:04:51.973Z,46.50
2018-12-31T00:07:19.962Z,45.00
2018-12-31T00:09:48.252Z,51.00
2018-12-31T00:12:16.215Z,45.25
2018-12-31T00:14:44.177Z,40.88
2018-12-31T00:17:12.467Z,36.55
2018-12-31T00:19:40.446Z,37.67
2018-12-31T00:22:08.710Z,35.78
2018-12-31T00:24:38.369Z,36.30
2018-12-31T00:27:06.318Z,36.25
2018-12-31T00:29:34.293Z,42.03
2018-12-31T00:32:02.216Z,40.40
2018-12-31T00:34:30.484Z,42.50
2018-12-31T00:36:59.091Z,36.53
2018-12-31T00:39:27.358Z,39.35
2018-12-31T00:41:55.643Z,32.80
2018-12-31T00:44:23.631Z,36.00
2018-12-31T00:46:51.590Z,41.90
2018-12-31T00:49:20.756Z,36.93
2018-12-31T00:51:48.737Z,28.30
2018-12-31T00:54:16.689Z,42.33
2018-12-31T00:56:44.678Z,32.60
2018-12-31T00:59:12.622Z,37.93
2018-12-31T01:01:40.936Z,38.30
2018-12-31T01:04:08.922Z,37.95
2018-12-31T01:06:36.896Z,33.65
2018-12-31T01:09:06.511Z,48.55
2018-12-31T01:11:34.825Z,33.25
2018-12-31T01:14:02.802Z,32.15
2018-12-31T01:16:30.791Z,30.32
2018-12-31T01:18:59.081Z,35.10
2018-12-31T01:21:27.355Z,28.42
2018-12-31T01:23:55.609Z,33.77
2018-12-31T01:26:23.911Z,30.60
2018-12-31T01:28:51.950Z,39.53
2018-12-31T01:31:19.923Z,31.15
2018-12-31T01:33:47.929Z,41.95
2018-12-31T01:36:16.304Z,35.63
2018-12-31T01:38:46.079Z,36.65
2018-12-31T01:41:14.382Z,35.70
2018-12-31T01:43:42.667Z,35.55
2018-12-31T01:46:11.051Z,155.77
2018-12-31T01:48:39.324Z,213.10
2018-12-31T01:51:11.222Z,77.53
2018-12-31T01:53:36.978Z,57.00
2018-12-31T01:56:04.979Z,46.48
2018-12-31T01:58:33.872Z,32.40
2018-12-31T02:01:01.815Z,40.98
2018-12-31T02:03:30.086Z,32.73
2018-12-31T02:05:58.388Z,27.62
2018-12-31T02:08:26.967Z,38.10
2018-12-31T02:10:54.926Z,36.58
2018-12-31T02:13:25.071Z,34.00
2018-12-31T02:15:53.074Z,41.23
2018-12-31T02:18:21.037Z,35.45
2018-12-31T02:20:49.281Z,35.87
2018-12-31T02:23:17.283Z,34.70
2018-12-31T02:25:45.602Z,35.20
2018-12-31T02:28:13.594Z,39.03
2018-12-31T02:30:41.926Z,32.05
2018-12-31T02:33:10.208Z,37.93
2018-12-31T02:35:39.145Z,33.70
2018-12-31T02:38:07.131Z,34.70
2018-12-31T02:40:35.389Z,46.37
2018-12-31T02:43:03.666Z,40.85
2018-12-31T02:45:31.938Z,48.55
2018-12-31T02:48:00.237Z,41.85
2018-12-31T02:50:28.227Z,49.60
2018-12-31T02:52:56.507Z,39.78
2018-12-31T02:55:24.727Z,40.83
2018-12-31T02:57:53.025Z,62.98
2018-12-31T03:00:21.892Z,97.12
2018-12-31T03:02:50.961Z,111.03
2018-12-31T03:05:18.959Z,47.58
2018-12-31T03:07:48.343Z,151.50
2018-12-31T03:10:16.292Z,86.37
2018-12-31T03:12:44.526Z,127.47
2018-12-31T03:15:13.022Z,58.60
2018-12-31T03:17:41.267Z,87.27
2018-12-31T03:20:09.240Z,67.87
2018-12-31T03:22:37.837Z,100.55
2018-12-31T03:25:06.105Z,64.58
2018-12-31T03:27:34.381Z,122.72
2018-12-31T03:30:02.671Z,185.50
2018-12-31T03:32:30.990Z,62.23
2018-12-31T03:35:00.783Z,137.28
2018-12-31T03:37:29.122Z,227.50
2018-12-31T03:39:57.142Z,99.52
2018-12-31T03:42:25.483Z,89.77
2018-12-31T03:44:54.072Z,62.80
2018-12-31T03:47:22.314Z,85.07
2018-12-31T03:49:50.634Z,82.33
2018-12-31T03:52:18.594Z,66.35
2018-12-31T03:54:46.846Z,95.40
2018-12-31T03:57:15.459Z,64.40
2018-12-31T03:59:43.835Z,54.35
2018-12-31T04:02:12.106Z,57.58
2018-12-31T04:04:40.037Z,66.87
2018-12-31T04:07:08.377Z,125.05
2018-12-31T04:09:36.630Z,86.30
2018-12-31T04:12:04.894Z,71.15
2018-12-31T04:14:33.176Z,127.10
2018-12-31T04:17:01.478Z,94.67
2018-12-31T04:19:29.748Z,88.52
2018-12-31T04:21:59.109Z,92.20
2018-12-31T04:24:27.427Z,132.50
2018-12-31T04:26:55.698Z,175.53
2018-12-31T04:29:23.650Z,118.40
2018-12-31T04:31:51.955Z,79.03
2018-12-31T04:34:20.224Z,73.60
2018-12-31T04:36:48.234Z,71.20
2018-12-31T04:39:16.570Z,49.97
2018-12-31T04:41:44.831Z,152.80
2018-12-31T04:44:13.406Z,83.47
2018-12-31T04:46:41.665Z,169.93
2018-12-31T04:49:09.993Z,110.52
2018-12-31T04:51:38.252Z,74.75
2018-12-31T04:54:06.226Z,64.53
2018-12-31T04:56:34.828Z,88.85
2018-12-31T04:59:02.776Z,97.33
2018-12-31T05:01:30.745Z,261.48
2018-12-31T05:03:59.328Z,241.30
2018-12-31T05:06:27.679Z,125.18
2018-12-31T05:08:56.464Z,82.12
2018-12-31T05:11:24.419Z,68.78
2018-12-31T05:13:52.386Z,107.45
2018-12-31T05:16:21.303Z,70.50
2018-12-31T05:18:49.714Z,65.55
2018-12-31T05:21:17.720Z,72.70
2018-12-31T05:23:45.707Z,67.42
2018-12-31T05:26:13.671Z,57.08
2018-12-31T05:28:41.633Z,54.60
2018-12-31T05:31:10.284Z,47.20
2018-12-31T05:33:38.239Z,54.25
2018-12-31T05:36:06.531Z,47.60
2018-12-31T05:38:35.115Z,40.23
2018-12-31T05:41:03.699Z,45.08
2018-12-31T05:43:31.975Z,50.25
2018-12-31T05:46:00.304Z,48.95
2018-12-31T05:48:28.351Z,44.35
2018-12-31T05:50:56.588Z,47.70
2018-12-31T05:53:24.598Z,54.88
2018-12-31T05:55:52.846Z,46.60
2018-12-31T05:58:21.238Z,52.33
2018-12-31T06:00:49.187Z,51.75
2018-12-31T06:03:17.783Z,47.60
2018-12-31T06:05:45.758Z,50.20
2018-12-31T06:08:14.047Z,64.63
2018-12-31T06:10:43.228Z,54.70
2018-12-31T06:13:11.201Z,53.02
2018-12-31T06:15:39.461Z,54.08
2018-12-31T06:18:08.060Z,52.62
2018-12-31T06:20:36.642Z,51.17
2018-12-31T06:23:04.893Z,48.87
2018-12-31T06:25:32.855Z,45.65
2018-12-31T06:28:01.523Z,45.15
2018-12-31T06:30:30.145Z,43.95
2018-12-31T06:32:58.395Z,40.35
2018-12-31T06:35:26.723Z,38.60
2018-12-31T06:37:54.986Z,42.43
2018-12-31T06:40:23.376Z,46.15
2018-12-31T06:42:51.614Z,41.15
2018-12-31T06:45:20.213Z,47.17
2018-12-31T06:47:50.000Z,46.58
2018-12-31T06:50:19.111Z,43.23
2018-12-31T06:52:47.071Z,49.18
2018-12-31T06:55:15.021Z,49.23
2018-12-31T06:57:43.662Z,45.27
2018-12-31T07:00:11.626Z,42.13
2018-12-31T07:02:40.318Z,48.70
2018-12-31T07:05:08.303Z,53.92
2018-12-31T07:07:36.562Z,53.57
2018-12-31T07:10:04.550Z,54.75
2018-12-31T07:12:32.808Z,47.23
2018-12-31T07:15:02.299Z,53.20
2018-12-31T07:17:30.590Z,53.40
2018-12-31T07:19:58.623Z,56.05
2018-12-31T07:22:26.602Z,46.80
2018-12-31T07:24:54.895Z,47.40
2018-12-31T07:27:22.846Z,47.30
2018-12-31T07:29:51.466Z,44.45
2018-12-31T07:32:20.048Z,44.30
2018-12-31T07:34:48.332Z,47.50
2018-12-31T07:37:16.602Z,47.30
2018-12-31T07:39:45.195Z,42.67
2018-12-31T07:42:13.468Z,39.30
2018-12-31T07:44:41.462Z,42.62
2018-12-31T07:47:09.901Z,38.23
2018-12-31T07:49:38.281Z,37.50
2018-12-31T07:52:05.855Z,40.25
2018-12-31T07:54:35.857Z,39.70
2018-12-31T07:57:03.554Z,37.93
2018-12-31T07:59:31.563Z,35.38
2018-12-31T08:01:59.490Z,34.98
2018-12-31T08:04:27.489Z,31.27
2018-12-31T08:06:55.715Z,33.98
2018-12-31T08:09:24.102Z,36.83
2018-12-31T08:11:52.031Z,38.63
2018-12-31T08:14:20.038Z,41.48
2018-12-31T08:16:49.422Z,37.75
2018-12-31T08:19:17.412Z,46.18
2018-12-31T08:21:45.360Z,41.42
2018-12-31T08:24:13.407Z,44.18
2018-12-31T08:26:41.389Z,47.38
2018-12-31T08:29:09.439Z,47.83
2018-12-31T08:31:37.738Z,46.92
2018-12-31T08:34:06.058Z,51.77
2018-12-31T08:36:34.110Z,50.90
2018-12-31T08:39:02.477Z,43.80
2018-12-31T08:41:30.458Z,52.50
2018-12-31T08:43:58.467Z,47.70
2018-12-31T08:46:26.425Z,57.25
2018-12-31T08:48:56.002Z,50.27
2018-12-31T08:51:24.290Z,54.13
2018-12-31T08:53:52.572Z,55.98
2018-12-31T08:56:20.558Z,54.60
2018-12-31T08:58:48.573Z,50.83
2018-12-31T09:01:16.994Z,53.50
2018-12-31T09:03:44.982Z,56.23
2018-12-31T09:06:12.938Z,58.30
2018-12-31T09:08:41.288Z,53.07
2018-12-31T09:11:09.996Z,50.73
2018-12-31T09:13:38.022Z,51.43
2018-12-31T09:16:06.342Z,52.53
2018-12-31T09:18:35.752Z,48.65
2018-12-31T09:21:04.335Z,62.95
2018-12-31T09:23:32.615Z,59.42
2018-12-31T09:26:00.571Z,53.60
2018-12-31T09:28:28.593Z,49.48
2018-12-31T09:30:58.022Z,66.77
2018-12-31T09:33:26.108Z,59.45
2018-12-31T09:35:54.507Z,59.63
2018-12-31T09:38:22.779Z,53.00
2018-12-31T09:40:51.152Z,55.75
2018-12-31T09:43:19.186Z,65.87
2018-12-31T09:45:47.526Z,60.35
2018-12-31T09:48:15.793Z,59.23
2018-12-31T09:50:43.863Z,59.77
2018-12-31T09:53:12.679Z,50.10
2018-12-31T09:55:40.872Z,58.87
2018-12-31T09:58:09.202Z,55.75
2018-12-31T10:00:37.495Z,58.45
2018-12-31T10:03:05.754Z,61.53
2018-12-31T10:05:34.002Z,57.75
2018-12-31T10:08:01.979Z,54.53
2018-12-31T10:10:29.975Z,56.68
2018-12-31T10:12:57.958Z,53.90
2018-12-31T10:15:25.956Z,56.02
2018-12-31T10:17:53.938Z,55.70
2018-12-31T10:20:22.019Z,54.27
2018-12-31T10:22:49.978Z,52.33
2018-12-31T10:25:18.000Z,46.35
2018-12-31T10:27:45.995Z,49.85
2018-12-31T10:30:13.987Z,47.50
2018-12-31T10:32:42.371Z,49.25
2018-12-31T10:35:10.388Z,44.60
2018-12-31T10:37:38.410Z,51.20
2018-12-31T10:40:07.431Z,54.70
2018-12-31T10:42:35.702Z,47.95
2018-12-31T10:45:03.703Z,46.88
2018-12-31T10:47:32.089Z,49.48
2018-12-31T10:50:00.355Z,46.00
2018-12-31T10:52:28.638Z,42.33
2018-12-31T10:54:56.619Z,35.80
2018-12-31T10:57:24.980Z,38.13
2018-12-31T10:59:53.220Z,32.98
2018-12-31T11:02:23.176Z,34.60
2018-12-31T11:04:50.855Z,32.55
2018-12-31T11:07:18.822Z,34.58
2018-12-31T11:09:46.786Z,29.57
2018-12-31T11:12:15.061Z,28.85
2018-12-31T11:14:43.603Z,28.47
2018-12-31T11:17:11.578Z,28.15
2018-12-31T11:19:39.882Z,27.58
2018-12-31T11:22:07.927Z,27.07
2018-12-31T11:24:35.915Z,27.83
2018-12-31T11:27:03.906Z,26.20
2018-12-31T11:29:31.898Z,25.00
2018-12-31T11:32:00.232Z,28.23
2018-12-31T11:34:28.517Z,28.75
2018-12-31T11:36:56.559Z,29.45
2018-12-31T11:39:25.177Z,30.80
2018-12-31T11:41:53.145Z,33.53
2018-12-31T11:44:21.123Z,32.35
2018-12-31T11:46:49.163Z,34.65
2018-12-31T11:49:17.094Z,29.98
2018-12-31T11:51:45.326Z,27.70
2018-12-31T11:54:13.315Z,30.95
2018-12-31T11:56:41.578Z,31.05
2018-12-31T11:59:09.573Z,27.22
2018-12-31T12:01:37.922Z,27.50
2018-12-31T12:04:05.901Z,27.20
2018-12-31T12:06:33.843Z,28.62
2018-12-31T12:09:02.009Z,26.60
2018-12-31T12:11:29.971Z,27.55
2018-12-31T12:13:57.978Z,30.77
2018-12-31T12:16:25.991Z,29.97
2018-12-31T12:18:54.003Z,33.28
2018-12-31T12:21:22.732Z,29.20
2018-12-31T12:23:50.770Z,26.95
2018-12-31T12:26:19.057Z,27.37
2018-12-31T12:28:47.046Z,30.57
2018-12-31T12:31:15.819Z,26.87
2018-12-31T12:33:44.098Z,27.10
2018-12-31T12:36:13.188Z,28.15
2018-12-31T12:38:41.883Z,26.15
2018-12-31T12:41:09.830Z,25.97
2018-12-31T12:43:37.848Z,23.85
2018-12-31T12:46:05.850Z,24.50
2018-12-31T12:48:33.862Z,24.43
2018-12-31T12:51:01.868Z,22.67
2018-12-31T12:53:30.194Z,25.23
2018-12-31T12:56:00.332Z,24.18
2018-12-31T12:58:28.308Z,23.60
2018-12-31T13:00:56.290Z,23.15
2018-12-31T13:03:24.839Z,20.82
2018-12-31T13:05:53.141Z,21.25
2018-12-31T13:08:21.120Z,19.27
2018-12-31T13:10:49.336Z,21.10
2018-12-31T13:13:17.624Z,22.37
2018-12-31T13:15:45.604Z,21.68
2018-12-31T13:18:13.568Z,24.33
2018-12-31T13:20:41.871Z,22.00
2018-12-31T13:23:09.873Z,25.35
2018-12-31T13:25:38.418Z,24.85
2018-12-31T13:28:08.251Z,26.48
2018-12-31T13:30:36.507Z,28.00
2018-12-31T13:33:04.454Z,29.95
2018-12-31T13:35:32.522Z,27.70
2018-12-31T13:38:00.500Z,29.42
2018-12-31T13:40:28.831Z,32.25
2018-12-31T13:42:56.797Z,32.83
2018-12-31T13:45:25.131Z,33.33
2018-12-31T13:47:53.408Z,33.50
2018-12-31T13:50:21.689Z,36.73
2018-12-31T13:52:51.719Z,38.85
2018-12-31T13:55:20.000Z,38.33
2018-12-31T13:57:48.256Z,34.80
2018-12-31T14:00:16.260Z,35.40
2018-12-31T14:02:44.240Z,38.58
2018-12-31T14:05:12.590Z,37.90
2018-12-31T14:07:41.179Z,39.65
2018-12-31T14:10:09.438Z,41.13
2018-12-31T14:12:37.751Z,36.75
2018-12-31T14:15:05.749Z,40.00
2018-12-31T14:17:34.378Z,42.50
2018-12-31T14:20:02.349Z,38.80
2018-12-31T14:22:30.628Z,36.68
2018-12-31T14:24:58.911Z,40.07
2018-12-31T14:27:27.463Z,37.83
2018-12-31T14:29:55.706Z,38.80
2018-12-31T14:32:24.027Z,35.55
2018-12-31T14:34:52.846Z,37.53
2018-12-31T14:37:20.819Z,36.28
2018-12-31T14:39:49.077Z,37.48
2018-12-31T14:42:17.358Z,38.58
2018-12-31T14:44:45.602Z,37.40
2018-12-31T14:47:18.268Z,38.83
2018-12-31T14:49:43.269Z,41.18
2018-12-31T14:52:11.539Z,40.75
2018-12-31T14:54:39.542Z,37.42
2018-12-31T14:57:08.150Z,39.42
2018-12-31T14:59:36.099Z,42.80
2018-12-31T15:02:04.499Z,55.10
2018-12-31T15:04:32.775Z,42.13
2018-12-31T15:07:01.358Z,40.73
2018-12-31T15:09:30.151Z,41.90
2018-12-31T15:11:58.423Z,44.05
2018-12-31T15:14:27.106Z,43.40
2018-12-31T15:16:55.115Z,45.73
2018-12-31T15:19:23.974Z,42.78
2018-12-31T15:21:52.459Z,43.78
2018-12-31T15:24:20.796Z,45.12
2018-12-31T15:26:48.777Z,43.02
2018-12-31T15:29:16.738Z,50.70
2018-12-31T15:31:45.074Z,45.10
2018-12-31T15:34:13.110Z,49.55
2018-12-31T15:36:42.518Z,44.70
2018-12-31T15:39:10.506Z,52.03
2018-12-31T15:41:38.493Z,48.83
2018-12-31T15:44:06.481Z,48.28
2018-12-31T15:46:34.483Z,51.70
2018-12-31T15:49:02.710Z,52.88
2018-12-31T15:51:30.660Z,48.65
2018-12-31T15:53:58.665Z,49.75
2018-12-31T15:56:27.557Z,52.78
2018-12-31T15:58:56.055Z,54.10
2018-12-31T16:01:24.387Z,50.25
2018-12-31T16:03:53.058Z,48.80
2018-12-31T16:06:21.642Z,48.95
2018-12-31T16:08:49.919Z,42.90
2018-12-31T16:11:18.203Z,43.25
2018-12-31T16:13:46.174Z,41.60
2018-12-31T16:16:14.170Z,42.27
2018-12-31T16:18:42.154Z,43.57
2018-12-31T16:21:10.463Z,43.63
2018-12-31T16:23:38.751Z,44.63
2018-12-31T16:26:07.040Z,40.58
2018-12-31T16:28:35.390Z,40.35
2018-12-31T16:31:03.681Z,38.50
2018-12-31T16:33:31.616Z,38.93
2018-12-31T16:35:59.616Z,34.48
2018-12-31T16:38:27.930Z,32.88
2018-12-31T16:40:56.306Z,33.48
2018-12-31T16:43:24.870Z,33.85
2018-12-31T16:45:53.147Z,37.42
2018-12-31T16:48:21.734Z,42.43
2018-12-31T16:50:49.710Z,40.25
2018-12-31T16:53:17.703Z,38.13
2018-12-31T16:55:45.948Z,34.10
2018-12-31T16:58:14.583Z,41.13
2018-12-31T17:00:42.582Z,43.87
2018-12-31T17:03:10.978Z,39.70
2018-12-31T17:05:39.261Z,38.60
2018-12-31T17:08:07.818Z,39.78
2018-12-31T17:10:36.126Z,39.90
2018-12-31T17:13:04.077Z,40.95
2018-12-31T17:15:32.102Z,40.10
2018-12-31T17:18:00.085Z,44.30
2018-12-31T17:20:28.080Z,49.47
2018-12-31T17:22:56.340Z,46.90
2018-12-31T17:25:24.965Z,51.40
2018-12-31T17:27:52.930Z,49.73
2018-12-31T17:30:21.214Z,47.33
2018-12-31T17:32:49.232Z,47.90
2018-12-31T17:35:17.627Z,46.40
2018-12-31T17:37:45.640Z,43.60
2018-12-31T17:40:13.566Z,39.33
2018-12-31T17:42:41.602Z,38.08
2018-12-31T17:45:09.950Z,35.65
2018-12-31T17:47:38.665Z,37.03
2018-12-31T17:50:07.430Z,34.40
2018-12-31T17:52:35.679Z,33.10
2018-12-31T17:55:03.649Z,50.00
2018-12-31T17:57:31.663Z,35.20
2018-12-31T17:59:59.650Z,30.52
2018-12-31T18:02:28.299Z,32.10
2018-12-31T18:04:56.300Z,33.27
2018-12-31T18:07:24.662Z,30.52
2018-12-31T18:09:52.639Z,30.17
2018-12-31T18:12:20.650Z,29.48
2018-12-31T18:14:48.648Z,29.27
2018-12-31T18:17:16.607Z,30.80
2018-12-31T18:19:45.930Z,28.07
2018-12-31T18:22:14.219Z,27.70
2018-12-31T18:24:42.459Z,28.85
2018-12-31T18:27:10.406Z,30.70
2018-12-31T18:29:38.395Z,28.67
2018-12-31T18:32:06.369Z,27.30
2018-12-31T18:34:34.713Z,27.70
2018-12-31T18:37:02.649Z,29.82
2018-12-31T18:39:30.603Z,28.62
2018-12-31T18:41:59.004Z,28.47
2018-12-31T18:44:27.010Z,27.98
2018-12-31T18:46:54.973Z,27.82
2018-12-31T18:49:23.204Z,30.52
2018-12-31T18:51:51.181Z,29.90
2018-12-31T18:54:19.162Z,27.65
2018-12-31T18:56:47.403Z,27.10
2018-12-31T18:59:16.103Z,27.15
2018-12-31T19:01:44.053Z,26.65
2018-12-31T19:04:12.358Z,29.15
2018-12-31T19:06:40.633Z,27.00
2018-12-31T19:09:09.520Z,23.50
2018-12-31T19:11:37.788Z,26.07
2018-12-31T19:14:06.389Z,23.25
2018-12-31T19:16:34.660Z,23.47
2018-12-31T19:19:03.246Z,27.73
2018-12-31T19:21:31.406Z,30.35
2018-12-31T19:23:59.383Z,32.20
2018-12-31T19:26:27.644Z,28.27
2018-12-31T19:28:55.963Z,25.33
2018-12-31T19:31:23.966Z,28.45
2018-12-31T19:33:51.947Z,28.25
2018-12-31T19:36:20.570Z,24.87
2018-12-31T19:38:48.498Z,24.23
2018-12-31T19:41:16.712Z,21.87
2018-12-31T19:43:45.088Z,18.02
2018-12-31T19:46:13.130Z,16.80
2018-12-31T19:48:41.993Z,14.97
2018-12-31T19:51:09.980Z,16.00
2018-12-31T19:53:37.966Z,15.03
2018-12-31T19:56:05.985Z,15.65
2018-12-31T19:58:34.347Z,14.23
2018-12-31T20:01:02.603Z,14.87
2018-12-31T20:03:31.409Z,15.38
2018-12-31T20:05:59.402Z,12.30
2018-12-31T20:08:27.645Z,12.20
2018-12-31T20:10:55.933Z,14.18
2018-12-31T20:13:24.194Z,12.07
2018-12-31T20:15:52.461Z,17.25
2018-12-31T20:18:20.751Z,22.87
2018-12-31T20:20:49.082Z,25.82
2018-12-31T20:23:17.390Z,23.40
2018-12-31T20:25:45.374Z,20.15
2018-12-31T20:28:13.392Z,20.70
2018-12-31T20:30:41.937Z,20.97
2018-12-31T20:33:09.883Z,14.35
2018-12-31T20:35:37.846Z,11.60
2018-12-31T20:38:05.852Z,16.62
2018-12-31T20:40:33.863Z,15.10
2018-12-31T20:43:02.096Z,16.67
2018-12-31T20:45:30.474Z,13.48
2018-12-31T20:48:01.860Z,15.30
2018-12-31T20:50:28.124Z,20.92
2018-12-31T20:52:56.119Z,18.80
2018-12-31T20:55:24.430Z,19.62
2018-12-31T20:57:52.401Z,21.57
2018-12-31T21:00:20.559Z,19.85
2018-12-31T21:02:48.566Z,14.90
2018-12-31T21:05:16.555Z,13.60
2018-12-31T21:07:44.629Z,11.65
2018-12-31T21:10:12.935Z,15.58
2018-12-31T21:12:42.387Z,15.18
2018-12-31T21:15:10.674Z,16.10
2018-12-31T21:17:38.987Z,11.88
2018-12-31T21:20:08.138Z,13.60
2018-12-31T21:22:36.153Z,16.82
2018-12-31T21:25:04.747Z,15.13
2018-12-31T21:27:33.022Z,14.07
2018-12-31T21:30:01.294Z,12.70
2018-12-31T21:32:29.600Z,12.33
2018-12-31T21:34:57.526Z,13.35
2018-12-31T21:37:25.474Z,14.98
2018-12-31T21:39:53.712Z,13.18
2018-12-31T21:42:21.682Z,11.20
2018-12-31T21:44:49.648Z,9.48
2018-12-31T21:47:18.214Z,9.70
2018-12-31T21:49:46.237Z,11.95
2018-12-31T21:52:14.464Z,11.12
2018-12-31T21:54:42.837Z,11.53
2018-12-31T21:57:10.783Z,9.18
2018-12-31T21:59:39.049Z,10.97
2018-12-31T22:02:07.658Z,12.88
2018-12-31T22:04:35.974Z,11.70
2018-12-31T22:07:04.335Z,11.63
2018-12-31T22:09:32.563Z,12.13
2018-12-31T22:12:02.634Z,11.22
2018-12-31T22:14:30.621Z,13.75
2018-12-31T22:16:58.874Z,10.65
2018-12-31T22:19:26.893Z,12.37
2018-12-31T22:21:55.923Z,12.25
2018-12-31T22:24:24.211Z,12.13
2018-12-31T22:26:52.610Z,10.65
2018-12-31T22:29:20.602Z,13.32
2018-12-31T22:31:48.558Z,13.58
2018-12-31T22:34:17.090Z,12.68
2018-12-31T22:36:45.391Z,13.05
2018-12-31T22:39:13.631Z,11.40
2018-12-31T22:41:41.942Z,13.60
2018-12-31T22:44:09.963Z,11.95
2018-12-31T22:46:37.951Z,11.97
2018-12-31T22:49:06.227Z,12.80
2018-12-31T22:51:34.887Z,10.80
2018-12-31T22:54:02.802Z,10.10
2018-12-31T22:56:31.102Z,7.67
2018-12-31T22:59:00.522Z,8.28
2018-12-31T23:01:30.420Z,7.80
2018-12-31T23:03:58.687Z,6.28
2018-12-31T23:06:26.658Z,8.05
2018-12-31T23:08:54.618Z,8.43
2018-12-31T23:11:22.908Z,10.78
2018-12-31T23:13:50.842Z,15.68
2018-12-31T23:16:23.871Z,20.20
2018-12-31T23:18:52.094Z,27.93
2018-12-31T23:21:20.099Z,37.60
2018-12-31T23:23:48.088Z,46.73
2018-12-31T23:26:16.441Z,46.47
2018-12-31T23:28:52.345Z,39.03
2018-12-31T23:31:14.587Z,32.13
2018-12-31T23:33:42.538Z,43.10
2018-12-31T23:36:12.351Z,25.82
2018-12-31T23:38:40.703Z,33.77
2018-12-31T23:41:08.893Z,50.05
2018-12-31T23:43:37.155Z,20.20
2018-12-31T23:46:05.463Z,12.93
2018-12-31T23:48:33.746Z,14.10
2018-12-31T23:51:01.741Z,12.50
2018-12-31T23:53:30.549Z,14.15
2018-12-31T23:55:58.532Z,13.38
2018-12-31T23:58:26.523Z,17.23
